Time;durP1;ratioP1;P1;durP2;ratioP2;P2;SDS_P1;SDS_P2;PMS_P1;PMS_P2;Temp;Humidity;BMP_temperature;BMP_pressure;BME280_temperature;BME280_humidity;BME280_pressure;Samples;Min_cycle;Max_cycle;Signal;HPM_P1;HPM_P2
2023/10/01 00:01:19;;;;;;;17.27;11.15;;;12.70;26.80;;;;;;7393521;19;20095;-69
2023/10/01 00:03:49;;;;;;;15.82;10.82;;;12.70;30.90;;;;;;7395019;19;20018;-69
2023/10/01 00:06:21;;;;;;;14.90;10.13;;;12.70;33.50;;;;;;7392105;19;20010;-69
2023/10/01 00:08:54;;;;;;;17.00;10.70;;;12.60;35.10;;;;;;7394767;19;20106;-69
2023/10/01 00:11:24;;;;;;;17.98;10.55;;;12.70;34.10;;;;;;7393524;19;20011;-69
2023/10/01 00:13:54;;;;;;;18.40;9.80;;;12.70;37.60;;;;;;7394727;19;20022;-69
2023/10/01 00:16:24;;;;;;;18.92;9.85;;;12.70;36.00;;;;;;7393246;19;20542;-69
2023/10/01 00:18:54;;;;;;;18.17;10.20;;;12.70;37.50;;;;;;7394083;19;20067;-69
2023/10/01 00:21:27;;;;;;;16.92;9.65;;;12.60;36.20;;;;;;7392750;19;20037;-69
2023/10/01 00:23:59;;;;;;;19.48;10.27;;;12.60;38.80;;;;;;7392676;19;20459;-69
2023/10/01 00:26:29;;;;;;;16.10;9.73;;;12.60;36.90;;;;;;7392845;19;20359;-69
2023/10/01 00:28:59;;;;;;;15.68;10.18;;;12.60;37.10;;;;;;7394139;19;20014;-69
2023/10/01 00:31:29;;;;;;;16.25;9.80;;;12.50;41.40;;;;;;7391035;19;20900;-69
2023/10/01 00:34:00;;;;;;;16.58;10.10;;;12.50;41.00;;;;;;7394120;19;20060;-69
2023/10/01 00:36:32;;;;;;;16.55;9.85;;;12.50;41.80;;;;;;7392446;19;20403;-69
2023/10/01 00:39:05;;;;;;;17.52;10.43;;;12.40;44.00;;;;;;7393752;19;20478;-69
2023/10/01 00:41:36;;;;;;;15.77;10.40;;;12.40;46.00;;;;;;7392875;19;20704;-69
2023/10/01 00:44:07;;;;;;;15.77;10.02;;;12.40;45.70;;;;;;7393726;19;20023;-69
2023/10/01 00:46:37;;;;;;;17.27;10.60;;;12.40;46.30;;;;;;7392305;19;20031;-69
2023/10/01 00:49:09;;;;;;;13.88;9.23;;;12.40;46.30;;;;;;7394408;19;20011;-68
2023/10/01 00:51:39;;;;;;;14.23;9.93;;;12.40;45.90;;;;;;7390290;19;20018;-69
2023/10/01 00:54:12;;;;;;;16.60;10.02;;;12.40;46.20;;;;;;7393195;19;20018;-68
2023/10/01 00:56:44;;;;;;;20.40;10.88;;;12.40;42.70;;;;;;7392119;19;20078;-68
2023/10/01 00:59:14;;;;;;;18.65;10.40;;;12.30;41.90;;;;;;7392962;19;20408;-69
2023/10/01 01:01:46;;;;;;;17.90;11.27;;;12.30;45.50;;;;;;7392256;19;20015;-69
2023/10/01 01:04:22;;;;;;;16.98;10.70;;;12.30;45.00;;;;;;7391677;19;20038;-68
2023/10/01 01:06:54;;;;;;;17.60;10.30;;;12.40;43.60;;;;;;7391856;19;20018;-68
2023/10/01 01:09:28;;;;;;;16.23;10.45;;;12.50;40.70;;;;;;7390934;19;20234;-69
2023/10/01 01:11:57;;;;;;;19.48;11.05;;;12.50;37.10;;;;;;7391649;19;20018;-68
2023/10/01 01:14:28;;;;;;;18.98;10.23;;;12.50;35.70;;;;;;7391776;19;20011;-68
2023/10/01 01:16:58;;;;;;;15.95;9.88;;;12.40;36.00;;;;;;7391731;19;20019;-69
2023/10/01 01:19:29;;;;;;;17.10;10.30;;;12.40;35.70;;;;;;7392860;19;20391;-68
2023/10/01 01:21:59;;;;;;;20.95;10.73;;;12.40;37.00;;;;;;7391829;19;20371;-68
2023/10/01 01:24:32;;;;;;;16.48;10.82;;;12.50;36.30;;;;;;7390372;19;20018;-69
2023/10/01 01:27:06;;;;;;;17.02;10.02;;;12.40;35.80;;;;;;7391405;19;20085;-69
2023/10/01 01:29:40;;;;;;;18.90;10.23;;;12.40;37.20;;;;;;7392381;19;20021;-68
2023/10/01 01:32:13;;;;;;;19.75;10.52;;;12.50;37.50;;;;;;7391509;19;20113;-69
2023/10/01 01:34:44;;;;;;;18.15;10.30;;;12.40;35.80;;;;;;7392664;19;20022;-69
2023/10/01 01:37:30;;;;;;;20.83;10.60;;;12.40;36.30;;;;;;7390474;19;20025;-69
2023/10/01 01:40:09;;;;;;;17.35;10.80;;;12.40;39.30;;;;;;7392106;19;20376;-69
2023/10/01 01:42:39;;;;;;;16.10;10.63;;;12.30;40.30;;;;;;7391097;19;20534;-69
2023/10/01 01:45:25;;;;;;;20.27;11.20;;;12.30;45.70;;;;;;7391223;19;20474;-69
2023/10/01 01:47:56;;;;;;;17.50;10.05;;;12.30;46.90;;;;;;7391590;19;20018;-70
2023/10/01 01:50:26;;;;;;;16.80;10.55;;;12.30;42.60;;;;;;7390607;19;20010;-69
2023/10/01 01:53:03;;;;;;;18.55;10.23;;;12.20;44.50;;;;;;7391314;19;20018;-69
2023/10/01 01:55:37;;;;;;;19.67;11.00;;;12.20;48.70;;;;;;7390012;19;20018;-68
2023/10/01 01:58:10;;;;;;;20.88;11.32;;;12.10;52.80;;;;;;7389871;19;20093;-68
2023/10/01 02:00:47;;;;;;;15.68;10.85;;;12.10;54.70;;;;;;7390782;19;20039;-69
2023/10/01 02:03:18;;;;;;;20.58;11.52;;;12.10;56.00;;;;;;7388842;19;20661;-69
2023/10/01 02:05:49;;;;;;;18.95;11.60;;;12.10;56.80;;;;;;7388173;19;20441;-69
2023/10/01 02:08:35;;;;;;;20.25;11.05;;;12.00;56.90;;;;;;7389973;19;20025;-69
2023/10/01 02:11:09;;;;;;;16.65;10.85;;;12.10;56.60;;;;;;7390326;19;20471;-68
2023/10/01 02:13:40;;;;;;;18.52;11.02;;;12.10;56.30;;;;;;7391268;19;20026;-68
2023/10/01 02:16:35;;;;;;;20.60;11.82;;;12.10;54.50;;;;;;7388344;19;20006;-68
2023/10/01 02:19:21;;;;;;;;;;;12.20;46.60;;;;;;7391514;19;20035;-68
2023/10/01 02:21:52;;;;;;;16.90;10.75;;;12.20;44.40;;;;;;7389567;19;19931;-68
2023/10/01 02:24:37;;;;;;;18.60;11.60;;;12.20;43.30;;;;;;7389861;19;20028;-68
2023/10/01 02:27:11;;;;;;;22.45;11.38;;;12.20;42.00;;;;;;7390211;19;20015;-69
2023/10/01 02:30:12;;;;;;;16.10;11.02;;;12.10;43.10;;;;;;7391048;19;20022;-68
2023/10/01 02:32:49;;;;;;;16.75;10.70;;;12.10;44.90;;;;;;7389673;19;20011;-68
2023/10/01 02:38:06;;;;;;;20.35;10.32;;;12.10;44.70;;;;;;7390070;19;20014;-68
2023/10/01 02:40:37;;;;;;;17.42;9.95;;;12.10;44.80;;;;;;7389346;19;20332;-68
2023/10/01 02:43:13;;;;;;;18.50;9.55;;;12.10;43.90;;;;;;7390392;19;20018;-68
2023/10/01 02:45:42;;;;;;;17.60;10.13;;;12.00;47.30;;;;;;7388342;19;20039;-69
2023/10/01 02:48:19;;;;;;;18.48;10.68;;;11.90;51.60;;;;;;7390184;19;20024;-69
2023/10/01 02:50:51;;;;;;;17.23;10.48;;;11.90;56.90;;;;;;7388709;19;20089;-69
2023/10/01 02:53:22;;;;;;;15.38;10.15;;;11.90;58.00;;;;;;7389409;19;20018;-69
2023/10/01 02:55:51;;;;;;;20.23;10.52;;;11.90;58.00;;;;;;7388332;19;20078;-69
2023/10/01 02:58:28;;;;;;;16.33;9.90;;;11.90;56.70;;;;;;7389495;19;20014;-69
2023/10/01 03:00:56;;;;;;;16.77;10.15;;;12.00;47.70;;;;;;7388771;19;20045;-69
2023/10/01 03:03:38;;;;;;;17.73;9.38;;;12.00;41.00;;;;;;7389441;19;20015;-69
2023/10/01 03:06:11;;;;;;;16.58;9.70;;;11.90;41.00;;;;;;7388101;19;20038;-69
2023/10/01 03:11:25;;;;;;;17.40;9.40;;;11.70;41.80;;;;;;7388069;19;20018;-69
2023/10/01 03:14:04;;;;;;;16.58;9.65;;;11.50;38.60;;;;;;7391753;19;20015;-69
2023/10/01 03:16:42;;;;;;;15.60;9.13;;;11.30;51.10;;;;;;7394781;19;20033;-68
2023/10/01 03:19:18;;;;;;;16.50;9.70;;;11.20;61.90;;;;;;7396552;19;20347;-68
2023/10/01 03:24:46;;;;;;;16.90;10.95;;;11.20;69.30;;;;;;7406820;19;20038;-68
2023/10/01 03:27:25;;;;;;;15.75;9.45;;;11.30;74.30;;;;;;7395689;19;20530;-69
2023/10/01 03:30:19;;;;;;;19.23;10.52;;;11.40;74.80;;;;;;7396654;19;20010;-69
2023/10/01 03:32:49;;;;;;;19.58;10.70;;;11.50;74.30;;;;;;7396346;19;20538;-69
2023/10/01 03:35:21;;;;;;;15.90;10.02;;;11.60;66.90;;;;;;7392842;19;20024;-69
2023/10/01 03:38:09;;;;;;;14.00;10.00;;;11.50;64.60;;;;;;7396068;19;20025;-70
2023/10/01 03:40:59;;;;;;;16.88;11.77;;;11.50;66.80;;;;;;7394676;19;20031;-69
2023/10/01 03:43:35;;;;;;;15.25;10.25;;;11.50;70.80;;;;;;7395050;19;20616;-69
2023/10/01 03:46:08;;;;;;;17.00;10.30;;;11.50;70.90;;;;;;7392756;19;20078;-69
2023/10/01 03:48:57;;;;;;;15.77;10.25;;;11.50;69.40;;;;;;7395254;19;20121;-69
2023/10/01 03:54:20;;;;;;;15.48;9.90;;;11.50;69.00;;;;;;7393379;19;20096;-68
2023/10/01 03:56:58;;;;;;;14.13;10.07;;;11.40;71.00;;;;;;7392608;19;20015;-69
2023/10/01 03:59:32;;;;;;;17.65;10.50;;;11.40;72.40;;;;;;7394104;19;20025;-69
2023/10/01 04:02:27;;;;;;;18.17;9.50;;;11.40;72.60;;;;;;7394432;19;20018;-69
2023/10/01 04:05:05;;;;;;;17.08;10.55;;;11.40;68.20;;;;;;7394653;19;20018;-68
2023/10/01 04:07:43;;;;;;;18.88;10.43;;;11.30;72.80;;;;;;7394168;19;20025;-69
2023/10/01 04:10:14;;;;;;;15.73;9.98;;;11.40;76.50;;;;;;7395065;19;20010;-69
2023/10/01 04:12:44;;;;;;;16.67;10.00;;;11.40;72.80;;;;;;7394148;19;20530;-68
2023/10/01 04:15:27;;;;;;;20.75;11.77;;;11.40;69.10;;;;;;7393075;19;20369;-69
2023/10/01 04:21:17;;;;;;;18.73;10.55;;;11.40;71.80;;;;;;7394083;19;20019;-68
2023/10/01 04:23:49;;;;;;;19.95;10.98;;;11.30;75.60;;;;;;7393391;19;20042;-68
2023/10/01 04:26:20;;;;;;;18.10;10.55;;;11.30;77.30;;;;;;7391935;19;20013;-68
2023/10/01 04:28:54;;;;;;;16.60;10.57;;;11.30;80.10;;;;;;7394083;19;20046;-68
2023/10/01 04:34:12;;;;;;;19.63;11.18;;;11.20;77.10;;;;;;7394109;19;20070;-67
2023/10/01 04:36:43;;;;;;;21.15;11.13;;;11.20;83.00;;;;;;7393228;19;20028;-68
2023/10/01 04:39:13;;;;;;;17.40;10.93;;;11.10;88.70;;;;;;7393968;19;20039;-67
2023/10/01 04:41:43;;;;;;;16.75;11.13;;;11.10;89.10;;;;;;7392667;19;20340;-69
2023/10/01 04:44:19;;;;;;;19.95;11.50;;;11.10;92.00;;;;;;7393976;19;20343;-70
2023/10/01 04:46:51;;;;;;;16.60;11.10;;;11.00;93.20;;;;;;7393313;19;20089;-69
2023/10/01 04:49:39;;;;;;;17.85;11.35;;;11.10;95.10;;;;;;7393047;19;20018;-69
2023/10/01 04:52:13;;;;;;;18.60;11.13;;;11.10;96.40;;;;;;7392675;19;20014;-69
2023/10/01 04:54:44;;;;;;;17.60;12.02;;;11.10;94.10;;;;;;7391388;19;20037;-69
2023/10/01 04:57:16;;;;;;;17.63;11.00;;;11.10;93.10;;;;;;7391322;19;20050;-69
2023/10/01 04:59:56;;;;;;;21.55;12.23;;;11.10;92.20;;;;;;7392015;19;20020;-69
2023/10/01 05:02:29;;;;;;;18.05;11.25;;;11.10;92.80;;;;;;7391868;19;20022;-69
2023/10/01 05:05:11;;;;;;;21.25;11.35;;;11.10;94.30;;;;;;7392878;19;20018;-69
2023/10/01 05:07:42;;;;;;;21.13;11.45;;;11.10;95.10;;;;;;7392647;19;20118;-69
2023/10/01 05:10:13;;;;;;;20.27;11.48;;;11.10;95.10;;;;;;7392262;19;20019;-69
2023/10/01 05:12:46;;;;;;;19.98;11.82;;;11.10;95.40;;;;;;7392335;19;20014;-69
2023/10/01 05:15:25;;;;;;;20.85;12.30;;;11.10;95.90;;;;;;7391589;19;20023;-69
2023/10/01 05:17:55;;;;;;;19.77;11.25;;;11.00;95.00;;;;;;7392663;19;20014;-70
2023/10/01 05:20:29;;;;;;;19.15;11.85;;;11.10;95.10;;;;;;7391624;19;20474;-69
2023/10/01 05:23:02;;;;;;;19.60;11.48;;;11.20;92.50;;;;;;7392924;19;20028;-69
2023/10/01 05:25:32;;;;;;;18.17;11.85;;;11.20;90.50;;;;;;7391225;19;20074;-69
2023/10/01 05:28:03;;;;;;;20.63;11.82;;;11.20;89.00;;;;;;7392159;19;20043;-69
2023/10/01 05:30:42;;;;;;;21.42;12.02;;;11.20;88.40;;;;;;7391617;19;20021;-69
2023/10/01 05:33:13;;;;;;;21.20;12.10;;;11.20;85.10;;;;;;7392098;19;20014;-69
2023/10/01 05:35:48;;;;;;;20.13;11.98;;;11.20;79.80;;;;;;7389025;19;20510;-68
2023/10/01 05:38:19;;;;;;;20.67;11.38;;;11.30;77.40;;;;;;7390509;19;20018;-67
2023/10/01 05:40:54;;;;;;;17.10;10.43;;;11.30;76.20;;;;;;7390023;19;20019;-69
2023/10/01 05:43:27;;;;;;;16.67;10.70;;;11.20;73.10;;;;;;7391929;19;20644;-68
2023/10/01 05:46:01;;;;;;;19.77;11.48;;;11.30;74.60;;;;;;7388983;19;20048;-68
2023/10/01 05:48:34;;;;;;;17.00;11.38;;;11.40;70.60;;;;;;7393001;19;20018;-68
2023/10/01 05:51:06;;;;;;;22.15;11.00;;;11.40;64.10;;;;;;7390754;19;20056;-68
2023/10/01 05:53:36;;;;;;;19.88;10.95;;;11.40;62.90;;;;;;7391634;19;20006;-68
2023/10/01 05:56:08;;;;;;;18.20;10.15;;;11.50;60.60;;;;;;7391323;19;20037;-68
2023/10/01 05:58:38;;;;;;;21.70;10.85;;;11.60;56.30;;;;;;7392751;19;20530;-68
2023/10/01 06:01:13;;;;;;;15.05;10.07;;;11.60;49.10;;;;;;7391498;19;20018;-69
2023/10/01 06:03:46;;;;;;;18.27;9.90;;;11.70;49.60;;;;;;7392517;19;20030;-68
2023/10/01 06:06:26;;;;;;;17.75;10.32;;;11.80;46.70;;;;;;7390376;19;20113;-69
2023/10/01 06:09:01;;;;;;;15.07;10.05;;;11.90;41.00;;;;;;7391140;19;20082;-68
2023/10/01 06:11:44;;;;;;;18.30;10.23;;;12.00;37.10;;;;;;7388282;19;20038;-68
2023/10/01 06:14:36;;;;;;;20.50;9.98;;;12.00;33.80;;;;;;7390738;19;20523;-68
2023/10/01 06:17:06;;;;;;;16.63;9.63;;;12.20;30.80;;;;;;7390401;19;20014;-68
2023/10/01 06:19:38;;;;;;;16.95;9.32;;;12.20;26.90;;;;;;7390868;19;20014;-68
2023/10/01 06:22:22;;;;;;;17.20;9.77;;;12.30;25.50;;;;;;7390461;19;20392;-68
2023/10/01 06:24:54;;;;;;;16.48;10.48;;;12.30;20.10;;;;;;7391275;19;20014;-68
2023/10/01 06:27:25;;;;;;;15.60;9.55;;;12.30;20.00;;;;;;7389712;19;20018;-68
2023/10/01 06:30:00;;;;;;;15.70;10.02;;;12.20;21.30;;;;;;7388967;19;20021;-68
2023/10/01 06:32:33;;;;;;;17.40;9.85;;;12.10;23.00;;;;;;7389599;19;20080;-69
2023/10/01 06:35:04;;;;;;;15.50;10.00;;;12.10;25.20;;;;;;7389694;19;20010;-68
2023/10/01 06:37:50;;;;;;;17.27;9.90;;;12.10;27.10;;;;;;7388056;19;20038;-69
2023/10/01 06:40:32;;;;;;;18.67;10.27;;;12.10;25.90;;;;;;7390178;19;20018;-69
2023/10/01 06:43:02;;;;;;;16.50;9.93;;;12.20;23.90;;;;;;7390657;19;20018;-69
2023/10/01 06:45:42;;;;;;;16.33;9.57;;;12.20;25.60;;;;;;7389460;19;20023;-68
2023/10/01 06:48:14;;;;;;;20.92;10.02;;;12.40;22.90;;;;;;7392874;19;20018;-69
2023/10/01 06:50:46;;;;;;;14.70;9.23;;;12.50;17.20;;;;;;7398163;19;20032;-69
2023/10/01 06:53:19;;;;;;;15.65;9.80;;;12.60;13.60;;;;;;7399573;19;20018;-69
2023/10/01 06:55:52;;;;;;;15.15;9.82;;;12.70;12.80;;;;;;7406858;19;20027;-69
2023/10/01 06:58:24;;;;;;;19.00;10.27;;;12.80;6.70;;;;;;7397130;19;20011;-69
2023/10/01 07:00:54;;;;;;;15.45;9.52;;;13.00;3.50;;;;;;7396162;19;20470;-69
2023/10/01 07:03:30;;;;;;;15.70;9.80;;;13.10;1.00;;;;;;7396734;19;20482;-69
2023/10/01 07:06:02;;;;;;;;;;;13.20;1.00;;;;;;7395396;19;20011;-69
2023/10/01 07:08:43;;;;;;;16.00;9.18;;;13.20;1.00;;;;;;7396268;19;20327;-69
2023/10/01 07:11:17;;;;;;;14.90;9.23;;;13.30;1.00;;;;;;7395205;19;20022;-69
2023/10/01 07:13:52;;;;;;;15.80;10.15;;;13.50;1.00;;;;;;7396847;19;20018;-69
2023/10/01 07:16:35;;;;;;;16.15;9.90;;;13.50;1.00;;;;;;7395411;19;20019;-69
2023/10/01 07:19:11;;;;;;;19.50;9.77;;;13.60;1.00;;;;;;7396069;19;20011;-69
2023/10/01 07:21:45;;;;;;;14.93;9.45;;;13.60;1.00;;;;;;7394939;19;20098;-69
2023/10/01 07:24:20;;;;;;;17.63;9.07;;;13.70;1.00;;;;;;7396012;19;20014;-69
2023/10/01 07:26:50;;;;;;;14.43;9.73;;;13.80;1.00;;;;;;7393805;19;20461;-69
2023/10/01 07:29:20;;;;;;;13.68;8.93;;;13.90;1.00;;;;;;7394422;19;20029;-69
2023/10/01 07:31:50;;;;;;;13.15;8.98;;;14.00;1.00;;;;;;7394807;19;20088;-69
2023/10/01 07:34:20;;;;;;;16.15;9.35;;;14.00;1.00;;;;;;7395858;19;20046;-69
2023/10/01 07:36:50;;;;;;;15.38;8.90;;;14.00;1.00;;;;;;7395572;19;20033;-69
2023/10/01 07:39:23;;;;;;;17.67;9.02;;;14.00;1.00;;;;;;7394403;19;20086;-69
2023/10/01 07:41:53;;;;;;;16.13;9.30;;;14.30;1.00;;;;;;7394968;19;20089;-69
2023/10/01 07:44:24;;;;;;;13.95;8.65;;;14.40;1.00;;;;;;7392385;19;20018;-69
2023/10/01 07:46:54;;;;;;;19.02;9.35;;;14.60;1.00;;;;;;7393486;19;20030;-69
2023/10/01 07:49:36;;;;;;;17.58;9.25;;;14.50;1.00;;;;;;7394885;19;20018;-69
2023/10/01 07:52:11;;;;;;;14.35;8.65;;;14.60;1.00;;;;;;7394193;19;20363;-69
2023/10/01 07:54:44;;;;;;;13.73;8.48;;;14.80;1.00;;;;;;7394230;19;20042;-69
2023/10/01 07:57:13;;;;;;;15.95;8.18;;;14.90;1.00;;;;;;7394059;19;20033;-69
2023/10/01 07:59:46;;;;;;;15.45;8.15;;;15.00;1.00;;;;;;7392882;19;20053;-68
2023/10/01 08:02:19;;;;;;;17.30;8.45;;;15.10;1.00;;;;;;7394514;19;20027;-68
2023/10/01 08:04:57;;;;;;;15.63;9.10;;;15.20;1.00;;;;;;7394274;19;20042;-69
2023/10/01 08:07:39;;;;;;;14.95;8.40;;;15.20;1.00;;;;;;7393624;19;20649;-69
2023/10/01 08:10:19;;;;;;;16.20;8.85;;;15.40;1.00;;;;;;7394409;19;20019;-69
2023/10/01 08:15:38;;;;;;;15.05;8.73;;;15.60;1.00;;;;;;7392103;19;20025;-70
2023/10/01 08:20:57;;;;;;;16.90;8.45;;;15.80;1.00;;;;;;7393178;19;20014;-70
2023/10/01 08:23:26;;;;;;;16.38;8.15;;;16.00;1.00;;;;;;7393506;19;20018;-69
2023/10/01 08:26:03;;;;;;;12.50;7.75;;;16.20;1.00;;;;;;7392656;19;20077;-69
2023/10/01 08:28:43;;;;;;;13.05;8.25;;;16.20;1.00;;;;;;7392558;19;20014;-69
2023/10/01 08:36:54;;;;;;;14.00;8.32;;;16.60;1.00;;;;;;7392602;19;20018;-69
2023/10/01 08:39:33;;;;;;;;;;;16.70;1.00;;;;;;7393774;19;20094;-69
2023/10/01 08:42:11;;;;;;;13.73;8.15;;;16.90;1.00;;;;;;7389741;19;19930;-69
2023/10/01 08:44:47;;;;;;;14.32;7.57;;;17.00;1.00;;;;;;7392922;19;20529;-69
2023/10/01 08:47:31;;;;;;;15.00;7.88;;;17.10;1.00;;;;;;7392324;19;20021;-69
2023/10/01 08:50:17;;;;;;;12.82;7.68;;;17.10;1.00;;;;;;7393481;19;20042;-69
2023/10/01 08:52:55;;;;;;;13.95;7.50;;;17.10;1.00;;;;;;7392302;19;20478;-69
2023/10/01 08:55:27;;;;;;;14.48;7.18;;;17.40;1.00;;;;;;7391914;19;20032;-69
2023/10/01 08:58:13;;;;;;;14.05;7.28;;;17.50;1.00;;;;;;7393236;19;20031;-69
2023/10/01 09:00:48;;;;;;;13.95;7.72;;;17.50;1.00;;;;;;7391655;19;20086;-69
2023/10/01 09:03:29;;;;;;;15.98;7.43;;;17.40;1.00;;;;;;7393041;19;20015;-69
2023/10/01 09:06:06;;;;;;;16.33;7.65;;;17.60;1.00;;;;;;7390861;19;20014;-69
2023/10/01 09:08:42;;;;;;;12.25;7.45;;;17.70;1.00;;;;;;7392238;19;20019;-69
2023/10/01 09:11:15;;;;;;;12.20;7.07;;;17.80;1.00;;;;;;7387414;19;20014;-69
2023/10/01 09:13:58;;;;;;;14.13;7.90;;;17.80;1.00;;;;;;7391903;19;20017;-69
2023/10/01 09:16:42;;;;;;;13.55;7.53;;;17.80;1.00;;;;;;7391023;19;20597;-69
2023/10/01 09:22:04;;;;;;;13.38;7.75;;;18.10;1.00;;;;;;7390640;19;20018;-69
2023/10/01 09:24:38;;;;;;;12.10;6.78;;;18.10;1.00;;;;;;7391861;19;20026;-69
2023/10/01 09:27:18;;;;;;;12.35;6.75;;;18.30;1.00;;;;;;7391536;19;20019;-68
2023/10/01 09:29:57;;;;;;;16.30;7.30;;;18.20;1.00;;;;;;7393130;19;20018;-68
2023/10/01 09:32:51;;;;;;;11.70;6.93;;;18.00;1.00;;;;;;7390817;19;20010;-69
2023/10/01 09:35:30;;;;;;;11.13;7.05;;;18.30;1.00;;;;;;7391192;19;20718;-69
2023/10/01 09:38:10;;;;;;;10.90;6.25;;;18.60;1.00;;;;;;7391696;19;20020;-69
2023/10/01 09:40:42;;;;;;;15.60;7.90;;;18.80;1.00;;;;;;7390583;19;20025;-70
2023/10/01 09:43:18;;;;;;;11.60;7.10;;;18.80;1.00;;;;;;7391248;19;20470;-69
2023/10/01 09:45:52;;;;;;;14.88;8.10;;;18.70;1.00;;;;;;7391015;19;20011;-69
2023/10/01 09:48:33;;;;;;;11.47;6.83;;;19.00;1.00;;;;;;7391548;19;20018;-69
2023/10/01 09:51:13;;;;;;;12.35;7.65;;;19.10;1.00;;;;;;7389857;19;20290;-69
2023/10/01 09:53:51;;;;;;;10.65;6.63;;;19.10;1.00;;;;;;7390917;19;20457;-69
2023/10/01 09:56:29;;;;;;;12.75;7.00;;;19.10;1.00;;;;;;7390420;19;20412;-70
2023/10/01 09:59:03;;;;;;;13.05;6.93;;;19.40;1.00;;;;;;7390738;19;20107;-69
2023/10/01 10:01:52;;;;;;;11.65;6.22;;;19.50;1.00;;;;;;7389019;19;20014;-69
2023/10/01 10:04:24;;;;;;;11.68;5.93;;;19.70;1.00;;;;;;7390398;19;20010;-69
2023/10/01 10:07:04;;;;;;;9.13;5.90;;;19.90;1.00;;;;;;7389939;19;20014;-69
2023/10/01 10:09:36;;;;;;;11.07;6.18;;;20.00;1.00;;;;;;7390496;19;20082;-69
2023/10/01 10:12:07;;;;;;;11.10;5.95;;;19.90;1.00;;;;;;7389662;19;20014;-69
2023/10/01 10:14:56;;;;;;;11.07;6.07;;;20.00;1.00;;;;;;7389355;19;20024;-69
2023/10/01 10:17:38;;;;;;;10.98;5.82;;;20.20;1.00;;;;;;7389569;19;20010;-69
2023/10/01 10:20:25;;;;;;;10.63;5.60;;;20.10;1.00;;;;;;7390504;19;20469;-68
2023/10/01 10:23:13;;;;;;;10.95;5.38;;;20.20;1.00;;;;;;7389631;19;20017;-69
2023/10/01 10:25:45;;;;;;;12.25;5.90;;;20.30;1.00;;;;;;7407867;19;20011;-69
2023/10/01 10:28:25;;;;;;;11.60;5.63;;;20.20;1.00;;;;;;7403292;19;20050;-69
2023/10/01 10:31:32;;;;;;;10.57;5.45;;;20.00;1.00;;;;;;7389416;19;20038;-69
2023/10/01 10:34:28;;;;;;;9.80;5.15;;;20.00;1.00;;;;;;7388547;19;20015;-69
2023/10/01 10:37:01;;;;;;;11.00;5.28;;;20.20;1.00;;;;;;7389775;19;20015;-70
2023/10/01 10:40:12;;;;;;;11.23;5.90;;;20.30;1.00;;;;;;7389347;19;20039;-69
2023/10/01 10:42:46;;;;;;;12.90;5.80;;;20.30;1.00;;;;;;7388718;19;20015;-69
2023/10/01 10:45:22;;;;;;;13.20;5.80;;;20.40;1.00;;;;;;7388797;19;20011;-69
2023/10/01 10:48:02;;;;;;;9.77;5.57;;;20.60;1.00;;;;;;7389828;19;20014;-69
2023/10/01 10:50:53;;;;;;;;;;;20.80;1.00;;;;;;7387729;19;20010;-69
2023/10/01 10:53:42;;;;;;;12.48;6.05;;;20.70;1.00;;;;;;7389148;19;20554;-69
2023/10/01 10:56:14;;;;;;;12.27;6.00;;;20.70;1.00;;;;;;7387972;19;20031;-69
2023/10/01 10:58:53;;;;;;;12.60;5.93;;;20.80;1.00;;;;;;7388851;19;20115;-69
2023/10/01 11:01:24;;;;;;;10.57;5.60;;;20.80;1.00;;;;;;7388197;19;20407;-69
2023/10/01 11:03:57;;;;;;;10.90;5.88;;;20.80;1.00;;;;;;7387815;19;20021;-69
2023/10/01 11:06:39;;;;;;;10.60;5.68;;;20.70;1.00;;;;;;7387049;19;20015;-69
2023/10/01 11:09:22;;;;;;;9.88;5.93;;;20.60;1.00;;;;;;7389239;19;20136;-69
2023/10/01 11:11:53;;;;;;;9.48;5.90;;;20.70;1.00;;;;;;7388370;19;20011;-69
2023/10/01 11:14:25;;;;;;;8.55;5.78;;;20.90;1.00;;;;;;7388756;19;20078;-69
2023/10/01 11:16:55;;;;;;;12.52;5.70;;;21.10;1.00;;;;;;7389000;19;20358;-69
2023/10/01 11:19:28;;;;;;;11.93;6.13;;;21.10;1.00;;;;;;7388924;19;20049;-69
2023/10/01 11:22:01;;;;;;;14.00;5.57;;;21.00;1.00;;;;;;7388867;19;20090;-69
2023/10/01 11:24:30;;;;;;;12.20;5.63;;;21.30;1.00;;;;;;7388781;19;20014;-69
2023/10/01 11:27:43;;;;;;;11.60;6.07;;;21.20;1.00;;;;;;7386802;19;20026;-69
2023/10/01 11:30:16;;;;;;;10.45;5.80;;;21.10;1.00;;;;;;7387483;19;20021;-68
2023/10/01 11:35:38;;;;;;;10.48;5.57;;;21.00;1.00;;;;;;7391368;19;20396;-69
2023/10/01 11:38:18;;;;;;;11.30;5.80;;;21.10;1.00;;;;;;7395672;19;20018;-69
2023/10/01 11:43:41;;;;;;;10.68;5.80;;;21.30;1.00;;;;;;7394800;19;20479;-69
2023/10/01 11:46:19;;;;;;;10.95;5.43;;;21.20;1.00;;;;;;7392011;19;20018;-69
2023/10/01 11:49:02;;;;;;;9.90;6.10;;;21.30;1.00;;;;;;7394618;19;20029;-69
2023/10/01 11:51:45;;;;;;;9.95;5.38;;;21.30;1.00;;;;;;7393257;19;20018;-69
2023/10/01 11:54:18;;;;;;;10.82;5.72;;;21.40;1.00;;;;;;7394401;19;20082;-68
2023/10/01 11:57:04;;;;;;;10.27;5.45;;;21.50;1.00;;;;;;7393174;19;20730;-69
2023/10/01 11:59:37;;;;;;;10.60;5.35;;;21.60;1.00;;;;;;7393983;19;20077;-68
2023/10/01 12:02:20;;;;;;;10.27;5.80;;;21.60;1.00;;;;;;7392833;19;20373;-68
2023/10/01 12:04:56;;;;;;;9.98;5.63;;;21.80;1.00;;;;;;7393275;19;20015;-68
2023/10/01 12:07:32;;;;;;;10.70;5.90;;;21.50;1.00;;;;;;7393251;19;20384;-70
2023/10/01 12:10:06;;;;;;;11.80;6.25;;;21.70;1.00;;;;;;7394180;19;20046;-70
2023/10/01 12:12:39;;;;;;;9.43;5.68;;;21.80;1.00;;;;;;7390168;19;20043;-70
2023/10/01 12:17:53;;;;;;;11.38;6.07;;;21.90;1.00;;;;;;7393706;19;20014;-69
2023/10/01 12:20:28;;;;;;;11.23;5.68;;;22.00;1.00;;;;;;7393578;19;20057;-68
2023/10/01 12:23:10;;;;;;;10.25;5.70;;;22.10;1.00;;;;;;7394126;19;20474;-69
2023/10/01 12:25:46;;;;;;;10.70;5.53;;;22.30;1.00;;;;;;7391927;19;20018;-68
2023/10/01 12:28:24;;;;;;;10.75;5.88;;;22.20;1.00;;;;;;7393673;19;20388;-69
2023/10/01 12:30:59;;;;;;;10.60;6.15;;;22.40;1.00;;;;;;7391080;19;20021;-69
2023/10/01 12:33:38;;;;;;;12.45;6.80;;;22.50;1.00;;;;;;7393341;19;20015;-68
2023/10/01 12:36:31;;;;;;;11.00;5.70;;;22.40;1.00;;;;;;7392244;19;20420;-70
2023/10/01 12:39:16;;;;;;;10.02;6.45;;;22.50;1.00;;;;;;7393770;19;20466;-69
2023/10/01 12:41:47;;;;;;;10.68;6.10;;;22.40;1.00;;;;;;7392553;19;20010;-69
2023/10/01 12:44:24;;;;;;;14.68;6.38;;;22.50;1.00;;;;;;7392144;19;20018;-69
2023/10/01 12:47:00;;;;;;;9.60;5.40;;;22.50;1.00;;;;;;7391440;19;20090;-69
2023/10/01 12:49:28;;;;;;;10.48;5.50;;;22.50;1.00;;;;;;7391112;19;20023;-69
2023/10/01 12:51:58;;;;;;;11.68;5.80;;;22.40;1.00;;;;;;7392484;19;20010;-70
2023/10/01 12:54:26;;;;;;;12.07;6.05;;;22.50;1.00;;;;;;7392788;19;20081;-69
2023/10/01 12:57:09;;;;;;;11.90;6.28;;;22.40;1.00;;;;;;7392135;19;20014;-68
2023/10/01 12:59:39;;;;;;;12.18;6.13;;;22.50;1.00;;;;;;7392306;19;20387;-69
2023/10/01 13:02:22;;;;;;;11.98;6.03;;;22.60;1.00;;;;;;7391122;19;20022;-69
2023/10/01 13:05:16;;;;;;;12.25;6.07;;;22.40;1.00;;;;;;7392235;19;20018;-70
2023/10/01 13:07:41;;;;;;;12.63;5.95;;;22.60;1.00;;;;;;7391795;19;20027;-68
2023/10/01 13:10:10;;;;;;;10.68;6.38;;;22.60;1.00;;;;;;7392172;19;20522;-69
2023/10/01 13:12:53;;;;;;;11.18;6.15;;;22.80;1.00;;;;;;7390751;19;20019;-69
2023/10/01 13:15:29;;;;;;;11.73;6.57;;;22.70;1.00;;;;;;7389552;19;20475;-67
2023/10/01 13:18:04;;;;;;;11.05;6.55;;;22.90;1.00;;;;;;7392534;19;20058;-70
2023/10/01 13:20:46;;;;;;;;;;;22.90;1.00;;;;;;7391967;19;20018;-70
2023/10/01 13:23:16;;;;;;;11.10;6.07;;;23.00;1.00;;;;;;7391964;19;19927;-70
2023/10/01 13:25:47;;;;;;;10.52;6.25;;;23.00;1.00;;;;;;7390831;19;20027;-69
2023/10/01 13:28:20;;;;;;;10.45;5.55;;;23.10;1.00;;;;;;7392009;19;20667;-69
2023/10/01 13:31:05;;;;;;;10.95;6.20;;;23.00;1.00;;;;;;7389071;19;20029;-69
2023/10/01 13:33:53;;;;;;;12.43;6.88;;;23.10;1.00;;;;;;7390166;19;20351;-69
2023/10/01 13:36:35;;;;;;;12.38;6.40;;;23.00;1.00;;;;;;7390208;19;20344;-69
2023/10/01 13:39:14;;;;;;;11.85;6.20;;;23.00;1.00;;;;;;7391838;19;20077;-73
2023/10/01 14:09:09;;;;;;;12.95;6.75;;;22.90;1.00;;;;;;7388312;19;20511;-68
2023/10/01 14:11:42;;;;;;;12.18;6.30;;;22.90;1.00;;;;;;7385862;19;20022;-68
2023/10/01 14:14:16;;;;;;;10.80;6.22;;;23.00;1.00;;;;;;7388977;19;20023;-69
2023/10/01 14:17:12;;;;;;;12.10;5.88;;;22.90;1.00;;;;;;7388385;19;20026;-71
2023/10/01 14:19:41;;;;;;;10.50;6.38;;;22.90;1.00;;;;;;7389929;19;20098;-69
2023/10/01 14:22:19;;;;;;;11.25;6.07;;;22.90;1.00;;;;;;7389708;19;20006;-69
2023/10/01 14:24:50;;;;;;;12.15;6.18;;;22.90;1.00;;;;;;7390012;19;20014;-69
2023/10/01 14:27:29;;;;;;;10.93;5.85;;;23.10;1.00;;;;;;7389582;19;20023;-69
2023/10/01 14:30:24;;;;;;;13.10;6.70;;;23.20;1.00;;;;;;7389952;19;20011;-69
2023/10/01 14:32:58;;;;;;;12.38;6.28;;;23.30;1.00;;;;;;7388214;19;20340;-68